Time;durP1;ratioP1;P1;durP2;ratioP2;P2;SDS_P1;SDS_P2;PMS_P1;PMS_P2;Temp;Humidity;BMP_temperature;BMP_pressure;BME280_temperature;BME280_humidity;BME280_pressure;Samples;Min_cycle;Max_cycle;Signal;HPM_P1;HPM_P2
2023/01/15 00:00:51;;;;;;;8.95;1.40;;;5.40;99.90;;;;;;5011787;28;20437;-65
2023/01/15 00:03:17;;;;;;;7.97;1.50;;;5.30;99.90;;;;;;5025273;28;20520;-66
2023/01/15 00:05:43;;;;;;;8.48;1.52;;;5.40;99.90;;;;;;5033025;28;20094;-66
2023/01/15 00:08:08;;;;;;;9.23;1.67;;;5.40;99.90;;;;;;5020993;28;20120;-67
2023/01/15 00:10:35;;;;;;;8.43;1.55;;;5.30;99.90;;;;;;5026178;28;20508;-65
2023/01/15 00:13:00;;;;;;;9.93;1.45;;;5.30;99.90;;;;;;5028690;28;20049;-67
2023/01/15 00:15:26;;;;;;;10.77;1.75;;;5.40;99.90;;;;;;5028777;28;20041;-66
2023/01/15 00:17:51;;;;;;;10.75;1.70;;;5.40;99.90;;;;;;5016006;28;20042;-67
2023/01/15 00:20:17;;;;;;;10.88;1.73;;;5.30;99.90;;;;;;5018167;28;20033;-66
2023/01/15 00:22:43;;;;;;;11.70;1.83;;;5.30;99.90;;;;;;5000001;28;20610;-67
2023/01/15 00:27:54;;;;;;;7.55;1.60;;;5.40;99.90;;;;;;5018789;28;20120;-66
2023/01/15 00:30:20;;;;;;;8.05;1.38;;;5.40;99.90;;;;;;5018327;28;20129;-67
2023/01/15 00:32:45;;;;;;;6.38;1.50;;;5.40;99.90;;;;;;5023440;28;20025;-65
2023/01/15 00:35:13;;;;;;;12.70;2.03;;;5.40;99.90;;;;;;5020380;28;20865;-67
2023/01/15 00:37:39;;;;;;;12.52;2.20;;;5.40;99.90;;;;;;5011868;28;20037;-66
2023/01/15 00:40:05;;;;;;;7.97;1.33;;;5.40;99.90;;;;;;5025676;28;20045;-67
2023/01/15 00:42:30;;;;;;;9.93;1.83;;;5.40;99.90;;;;;;5017473;28;20116;-67
2023/01/15 00:44:56;;;;;;;7.43;2.08;;;5.40;99.90;;;;;;5011584;28;20038;-67
2023/01/15 00:47:22;;;;;;;8.27;1.30;;;5.40;99.90;;;;;;5029314;28;20152;-67
2023/01/15 00:49:49;;;;;;;7.57;1.65;;;5.40;99.90;;;;;;5023240;28;20079;-66
2023/01/15 00:52:14;;;;;;;11.27;1.67;;;5.40;99.90;;;;;;5021994;28;20048;-68
2023/01/15 00:54:40;;;;;;;8.55;1.50;;;5.40;99.90;;;;;;5009673;28;20393;-68
2023/01/15 00:57:06;;;;;;;12.32;1.67;;;5.40;99.90;;;;;;5013894;28;20041;-66
2023/01/15 00:59:31;;;;;;;9.00;1.40;;;5.30;99.90;;;;;;4995752;28;20267;-68
2023/01/15 01:01:57;;;;;;;7.88;1.58;;;5.40;99.90;;;;;;5019214;28;20042;-68
2023/01/15 01:04:22;;;;;;;11.07;1.73;;;5.40;99.90;;;;;;5023591;28;20042;-68
2023/01/15 01:06:48;;;;;;;7.25;1.13;;;5.40;99.90;;;;;;5023113;28;20456;-68
2023/01/15 01:09:15;;;;;;;17.02;2.92;;;5.30;99.90;;;;;;5014182;28;20431;-67
2023/01/15 01:11:41;;;;;;;12.25;1.60;;;5.40;99.90;;;;;;5014889;28;20034;-68
2023/01/15 01:14:08;;;;;;;11.65;1.77;;;5.40;99.90;;;;;;5019118;28;20083;-68
2023/01/15 01:16:36;;;;;;;11.20;1.67;;;5.40;99.90;;;;;;5013278;28;20470;-69
2023/01/15 01:19:13;;;;;;;12.98;2.30;;;5.40;99.90;;;;;;5016449;28;20041;-68
2023/01/15 01:21:40;;;;;;;8.93;1.88;;;5.40;99.90;;;;;;5015646;28;20056;-67
2023/01/15 01:24:07;;;;;;;13.05;1.73;;;5.40;99.90;;;;;;5004780;28;20091;-68
2023/01/15 01:26:33;;;;;;;7.97;1.90;;;5.40;99.90;;;;;;5009211;28;20077;-66
2023/01/15 01:28:58;;;;;;;8.93;2.00;;;5.40;99.90;;;;;;4988656;28;20128;-68
2023/01/15 01:31:24;;;;;;;15.85;1.80;;;5.30;99.90;;;;;;5023613;28;20502;-69
2023/01/15 01:33:52;;;;;;;6.28;2.00;;;5.40;99.90;;;;;;5010536;28;20045;-67
2023/01/15 01:36:18;;;;;;;14.10;1.67;;;5.40;99.90;;;;;;5019984;28;20564;-67
2023/01/15 01:38:48;;;;;;;9.43;1.30;;;5.30;99.90;;;;;;5017654;28;20389;-68
2023/01/15 01:41:15;;;;;;;7.40;1.30;;;5.40;99.90;;;;;;5012482;28;20379;-67
2023/01/15 01:43:58;;;;;;;12.30;1.77;;;5.40;99.90;;;;;;5017066;28;20425;-68
2023/01/15 01:46:25;;;;;;;9.25;1.80;;;5.40;99.90;;;;;;5014197;28;20062;-69
2023/01/15 01:48:54;;;;;;;11.25;1.70;;;5.40;99.90;;;;;;5026334;28;20053;-68
2023/01/15 01:51:25;;;;;;;11.80;1.48;;;5.40;99.90;;;;;;5026266;28;20038;-68
2023/01/15 01:53:51;;;;;;;14.48;1.60;;;5.30;99.90;;;;;;5022169;28;20056;-70
2023/01/15 01:56:18;;;;;;;9.68;1.50;;;5.40;99.90;;;;;;5020905;28;20038;-68
2023/01/15 01:58:47;;;;;;;12.52;1.30;;;5.30;99.90;;;;;;5009965;28;20045;-69
2023/01/15 02:01:13;;;;;;;7.97;1.90;;;5.30;99.90;;;;;;5013767;28;20444;-70
2023/01/15 02:03:39;;;;;;;7.88;1.52;;;5.30;99.90;;;;;;5021061;28;20120;-68
2023/01/15 02:06:08;;;;;;;4.53;1.73;;;5.30;99.90;;;;;;5023028;28;20202;-68
2023/01/15 02:08:38;;;;;;;7.60;1.42;;;5.40;99.90;;;;;;5014075;28;20148;-68
2023/01/15 02:11:05;;;;;;;13.00;2.20;;;5.40;99.90;;;;;;4996997;28;20065;-70
2023/01/15 02:13:36;;;;;;;7.97;1.38;;;5.40;99.90;;;;;;5005774;28;20049;-68
2023/01/15 02:16:07;;;;;;;6.53;1.90;;;5.30;99.90;;;;;;5014294;28;20728;-68
2023/01/15 02:18:42;;;;;;;;;;;5.30;99.90;;;;;;5013447;28;20073;-67
2023/01/15 02:21:22;;;;;;;11.00;1.50;;;5.40;99.90;;;;;;5012185;28;19936;-68
2023/01/15 02:24:08;;;;;;;;;;;5.40;99.90;;;;;;5013248;28;20068;-68
2023/01/15 02:26:57;;;;;;;11.35;1.85;;;5.30;99.90;;;;;;5017025;28;19964;-66
2023/01/15 02:29:38;;;;;;;10.05;1.60;;;5.40;99.90;;;;;;5010867;28;20038;-67
2023/01/15 02:32:12;;;;;;;12.35;1.98;;;5.40;99.90;;;;;;5014739;28;20038;-68
2023/01/15 02:34:45;;;;;;;7.85;1.73;;;5.30;99.90;;;;;;5025108;28;20078;-68
2023/01/15 02:37:16;;;;;;;11.88;1.85;;;5.30;99.90;;;;;;5025684;28;20037;-67
2023/01/15 02:39:44;;;;;;;11.88;1.70;;;5.40;99.90;;;;;;5019867;28;20045;-68
2023/01/15 02:42:11;;;;;;;9.13;1.63;;;5.30;99.90;;;;;;5009665;28;20120;-68
2023/01/15 02:44:43;;;;;;;12.98;2.38;;;5.30;99.90;;;;;;5013572;28;20057;-66
2023/01/15 02:47:10;;;;;;;7.80;1.73;;;5.30;99.90;;;;;;5003824;28;20062;-67
2023/01/15 02:49:39;;;;;;;13.95;2.05;;;5.30;99.90;;;;;;5022944;28;20049;-66
2023/01/15 02:52:26;;;;;;;8.27;1.65;;;5.30;99.90;;;;;;5022414;28;20038;-65
2023/01/15 02:54:56;;;;;;;9.60;1.50;;;5.40;99.90;;;;;;5025100;28;20049;-67
2023/01/15 02:57:24;;;;;;;8.20;1.42;;;5.40;99.90;;;;;;5031123;28;20116;-67
2023/01/15 02:59:52;;;;;;;14.00;2.20;;;5.30;99.90;;;;;;5016533;28;20041;-68
2023/01/15 03:02:21;;;;;;;6.30;1.92;;;5.30;99.90;;;;;;5022891;28;20038;-66
2023/01/15 03:05:00;;;;;;;;;;;5.30;99.90;;;;;;5021285;28;20046;-65
2023/01/15 03:07:35;;;;;;;7.95;1.70;;;5.30;99.90;;;;;;5024015;28;20306;-66
2023/01/15 03:10:02;;;;;;;12.07;2.10;;;5.30;99.90;;;;;;5027166;28;20122;-66
2023/01/15 03:13:01;;;;;;;10.77;1.70;;;5.30;99.90;;;;;;5005239;28;20043;-66
2023/01/15 03:18:45;;;;;;;11.32;2.08;;;5.30;99.90;;;;;;5019250;28;20046;-66
2023/01/15 03:21:15;;;;;;;10.52;2.30;;;5.30;99.90;;;;;;5002478;28;20041;-67
2023/01/15 03:23:45;;;;;;;11.57;1.83;;;5.30;99.90;;;;;;5018909;28;20091;-67
2023/01/15 03:26:11;;;;;;;7.65;1.80;;;5.30;99.90;;;;;;5018770;28;20049;-67
2023/01/15 03:28:39;;;;;;;14.02;2.95;;;5.30;99.90;;;;;;5013334;28;20045;-67
2023/01/15 03:31:05;;;;;;;10.05;1.75;;;5.30;99.90;;;;;;5013846;28;20057;-65
2023/01/15 03:33:31;;;;;;;16.17;2.83;;;5.30;99.90;;;;;;5022585;28;20416;-67
2023/01/15 03:36:00;;;;;;;11.07;1.70;;;5.30;99.90;;;;;;5027097;28;20065;-67
2023/01/15 03:38:32;;;;;;;12.50;1.88;;;5.30;99.90;;;;;;5027310;28;20124;-66
2023/01/15 03:41:16;;;;;;;16.42;2.55;;;5.30;99.90;;;;;;5020236;28;20049;-67
2023/01/15 03:43:57;;;;;;;8.50;1.70;;;5.30;99.90;;;;;;5026768;28;20538;-66
2023/01/15 03:46:56;;;;;;;12.10;2.30;;;5.30;99.90;;;;;;5029327;28;20045;-66
2023/01/15 03:49:45;;;;;;;13.45;2.15;;;5.30;99.90;;;;;;5028374;28;20397;-66
2023/01/15 03:52:50;;;;;;;14.80;2.07;;;5.30;99.90;;;;;;5025725;28;20072;-66
2023/01/15 03:55:24;;;;;;;11.00;2.00;;;5.30;99.90;;;;;;5024707;28;20045;-67
2023/01/15 03:58:11;;;;;;;12.30;2.00;;;5.30;99.90;;;;;;5026553;28;20405;-67
2023/01/15 04:00:51;;;;;;;6.30;1.60;;;5.30;99.90;;;;;;5022214;28;20038;-66
2023/01/15 04:03:19;;;;;;;3.95;1.60;;;5.30;99.90;;;;;;5020317;28;20113;-66
2023/01/15 04:05:46;;;;;;;13.50;1.83;;;5.30;99.90;;;;;;5015836;28;20041;-66
2023/01/15 04:08:13;;;;;;;9.57;1.75;;;5.20;99.90;;;;;;5008314;28;20037;-65
2023/01/15 04:10:50;;;;;;;10.63;2.05;;;5.20;99.90;;;;;;4999911;28;20496;-66
2023/01/15 04:13:16;;;;;;;11.50;1.83;;;5.20;99.90;;;;;;5014718;28;20392;-67
2023/01/15 04:15:41;;;;;;;9.32;2.00;;;5.20;99.90;;;;;;5024238;28;20034;-67
2023/01/15 04:18:07;;;;;;;17.40;2.22;;;5.20;99.90;;;;;;5019242;28;20064;-65
2023/01/15 04:20:32;;;;;;;14.10;3.50;;;5.20;99.90;;;;;;5014332;28;20045;-66
2023/01/15 04:22:58;;;;;;;11.07;2.15;;;5.30;99.90;;;;;;5008925;28;20065;-66
2023/01/15 04:25:23;;;;;;;12.30;1.77;;;5.20;99.90;;;;;;5016314;28;20040;-66
2023/01/15 04:27:49;;;;;;;11.48;1.85;;;5.30;99.90;;;;;;5020896;28;20116;-66
2023/01/15 04:30:16;;;;;;;13.13;1.70;;;5.30;99.90;;;;;;5019489;28;20052;-66
2023/01/15 04:32:42;;;;;;;10.73;2.15;;;5.20;99.90;;;;;;5013039;28;22428;-67
2023/01/15 04:35:08;;;;;;;12.57;1.67;;;5.20;99.90;;;;;;5018729;28;20040;-67
2023/01/15 04:37:33;;;;;;;5.97;1.73;;;5.20;99.90;;;;;;5021273;28;20381;-66
2023/01/15 04:39:59;;;;;;;10.30;1.55;;;5.20;99.90;;;;;;5021685;28;20556;-66
2023/01/15 04:45:09;;;;;;;13.88;2.33;;;5.30;99.90;;;;;;5023936;28;20524;-66
2023/01/15 04:47:34;;;;;;;8.82;1.88;;;5.30;99.90;;;;;;5016819;28;20050;-65
2023/01/15 04:50:00;;;;;;;9.23;1.67;;;5.20;99.90;;;;;;5022109;28;20120;-65
2023/01/15 04:52:25;;;;;;;15.80;1.90;;;5.30;99.90;;;;;;5015960;28;20057;-66
2023/01/15 04:54:54;;;;;;;7.15;1.55;;;5.30;99.90;;;;;;5025469;28;20037;-66
2023/01/15 04:57:19;;;;;;;11.88;1.65;;;5.30;99.90;;;;;;5027323;28;20041;-66
2023/01/15 04:59:45;;;;;;;10.38;1.83;;;5.30;99.90;;;;;;5023708;28;20043;-66
2023/01/15 05:02:10;;;;;;;7.90;1.42;;;5.30;99.90;;;;;;5028618;28;20176;-65
2023/01/15 05:04:36;;;;;;;7.82;1.75;;;5.30;99.90;;;;;;5014314;28;20049;-66
2023/01/15 05:07:02;;;;;;;14.23;1.85;;;5.30;99.90;;;;;;5023569;28;20045;-66
2023/01/15 05:09:28;;;;;;;11.10;1.90;;;5.30;99.90;;;;;;5016358;28;20160;-65
2023/01/15 05:11:53;;;;;;;10.57;2.13;;;5.30;99.90;;;;;;5027750;28;20124;-66
2023/01/15 05:14:19;;;;;;;9.80;1.95;;;5.30;99.90;;;;;;5021731;28;20072;-67
2023/01/15 05:16:44;;;;;;;9.68;1.73;;;5.30;99.90;;;;;;5026440;28;20044;-67
2023/01/15 05:19:10;;;;;;;12.13;2.08;;;5.40;99.90;;;;;;5012208;28;20042;-66
2023/01/15 05:21:40;;;;;;;13.15;2.30;;;5.30;99.90;;;;;;5027632;28;20044;-65
2023/01/15 05:24:13;;;;;;;13.57;2.17;;;5.50;99.90;;;;;;5019839;28;20056;-65
2023/01/15 05:26:40;;;;;;;6.88;1.38;;;5.50;99.90;;;;;;5019971;28;20046;-66
2023/01/15 05:29:05;;;;;;;10.45;1.77;;;5.50;99.90;;;;;;5020980;28;20048;-66
2023/01/15 05:31:32;;;;;;;9.55;1.70;;;5.50;99.90;;;;;;5012236;28;20049;-65
2023/01/15 05:33:58;;;;;;;12.75;1.88;;;5.50;99.90;;;;;;5017942;28;20045;-66
2023/01/15 05:36:29;;;;;;;18.75;2.25;;;5.50;99.90;;;;;;5019384;28;20037;-65
2023/01/15 05:38:58;;;;;;;14.35;1.77;;;5.50;99.90;;;;;;4997470;28;20088;-66
2023/01/15 05:44:11;;;;;;;22.83;1.90;;;5.50;99.90;;;;;;5017309;28;20049;-65
2023/01/15 05:46:38;;;;;;;8.18;1.60;;;5.50;99.90;;;;;;5026506;28;20060;-66
2023/01/15 05:49:06;;;;;;;5.05;1.25;;;5.50;99.90;;;;;;5018415;28;20038;-66
2023/01/15 05:51:34;;;;;;;11.95;1.63;;;5.40;99.90;;;;;;5018364;28;20037;-65
2023/01/15 05:54:00;;;;;;;8.40;1.67;;;5.40;99.90;;;;;;4990571;28;20179;-66
2023/01/15 05:56:25;;;;;;;9.95;1.80;;;5.30;99.90;;;;;;5011105;28;20201;-66
2023/01/15 05:58:52;;;;;;;10.10;1.58;;;5.40;99.90;;;;;;5022896;28;20037;-65
2023/01/15 06:01:17;;;;;;;9.27;1.65;;;5.30;99.90;;;;;;5011238;28;20046;-65
2023/01/15 06:03:43;;;;;;;11.05;2.45;;;5.30;99.90;;;;;;5021638;28;20050;-64
2023/01/15 06:06:14;;;;;;;9.07;1.80;;;5.30;99.90;;;;;;5017912;28;20116;-66
2023/01/15 06:08:39;;;;;;;;;;;5.20;99.90;;;;;;5020440;28;20053;-66
2023/01/15 06:11:06;;;;;;;9.60;1.67;;;5.20;99.90;;;;;;5018858;28;19929;-65
2023/01/15 06:13:32;;;;;;;9.65;1.92;;;5.20;99.90;;;;;;5014098;28;20037;-65
2023/01/15 06:16:00;;;;;;;11.80;2.08;;;5.20;99.90;;;;;;5016906;28;20049;-64
2023/01/15 06:18:26;;;;;;;8.05;1.70;;;5.30;99.90;;;;;;5015240;28;20045;-66
2023/01/15 06:20:52;;;;;;;8.13;1.30;;;5.20;99.90;;;;;;5028966;28;20041;-65
2023/01/15 06:23:18;;;;;;;7.43;1.48;;;5.20;99.90;;;;;;5022221;28;20037;-65
2023/01/15 06:25:43;;;;;;;12.82;2.38;;;5.20;99.90;;;;;;5020201;28;20187;-66
2023/01/15 06:28:10;;;;;;;7.97;2.75;;;5.20;99.90;;;;;;5014451;28;20041;-66
2023/01/15 06:30:38;;;;;;;10.98;1.98;;;5.10;99.90;;;;;;5015908;28;20050;-66
2023/01/15 06:33:04;;;;;;;11.40;1.77;;;5.20;99.90;;;;;;5024046;28;20354;-64
2023/01/15 06:35:29;;;;;;;10.63;1.70;;;5.30;99.90;;;;;;5018544;28;20171;-65
2023/01/15 06:37:55;;;;;;;11.65;2.10;;;5.30;99.90;;;;;;5006778;28;20048;-66
2023/01/15 06:40:22;;;;;;;5.25;1.40;;;5.20;99.90;;;;;;5027689;28;20377;-65
2023/01/15 06:48:25;;;;;;;9.32;1.73;;;5.30;99.90;;;;;;5019141;28;20041;-65
2023/01/15 06:50:52;;;;;;;9.52;1.90;;;5.30;99.90;;;;;;5030292;28;20047;-66
2023/01/15 06:53:18;;;;;;;9.40;1.70;;;5.20;99.90;;;;;;5021626;28;20043;-65
2023/01/15 06:55:44;;;;;;;11.30;1.50;;;5.10;99.90;;;;;;5026064;28;20034;-66
2023/01/15 06:58:09;;;;;;;8.13;1.33;;;5.00;99.90;;;;;;5020281;28;20046;-66
2023/01/15 07:00:35;;;;;;;6.30;1.52;;;4.90;99.90;;;;;;5016859;28;20496;-65
2023/01/15 07:03:01;;;;;;;10.90;1.92;;;4.90;99.90;;;;;;5018597;28;20062;-66
2023/01/15 07:05:27;;;;;;;7.88;1.90;;;4.90;99.90;;;;;;5014182;28;20049;-66
2023/01/15 07:07:53;;;;;;;8.93;1.48;;;4.90;99.90;;;;;;5012350;28;20041;-65
2023/01/15 07:10:19;;;;;;;10.75;1.60;;;4.90;99.90;;;;;;5027503;28;20515;-66
2023/01/15 07:12:44;;;;;;;5.90;1.90;;;4.90;99.90;;;;;;5030251;28;20041;-64
2023/01/15 07:15:10;;;;;;;8.88;1.45;;;4.90;99.90;;;;;;5027473;28;20443;-64
2023/01/15 07:17:36;;;;;;;8.68;1.65;;;4.90;99.90;;;;;;5020908;28;20045;-65
2023/01/15 07:20:03;;;;;;;13.48;1.98;;;4.90;99.90;;;;;;5028718;28;20038;-65
2023/01/15 07:22:30;;;;;;;9.63;1.73;;;4.90;99.90;;;;;;5027684;28;20041;-64
2023/01/15 07:24:55;;;;;;;9.88;1.73;;;4.80;99.90;;;;;;5011734;28;20061;-65
2023/01/15 07:27:21;;;;;;;9.20;1.67;;;4.90;99.90;;;;;;5014478;28;20069;-65
2023/01/15 07:29:48;;;;;;;10.35;1.35;;;4.90;99.90;;;;;;5014280;28;20600;-66
2023/01/15 07:32:14;;;;;;;8.75;1.45;;;4.90;99.90;;;;;;5025591;28;20127;-65
2023/01/15 07:34:39;;;;;;;11.15;1.77;;;5.00;99.90;;;;;;4997366;28;20053;-66
2023/01/15 07:37:05;;;;;;;9.80;2.25;;;4.90;99.90;;;;;;5017326;28;20037;-66
2023/01/15 07:39:31;;;;;;;11.30;2.00;;;4.90;99.90;;;;;;5014085;28;20544;-66
2023/01/15 07:50:13;;;;;;;7.97;1.20;;;5.00;99.90;;;;;;5025542;28;20053;-65
2023/01/15 07:52:39;;;;;;;9.95;1.48;;;4.90;99.90;;;;;;5022993;28;20147;-65
2023/01/15 07:55:07;;;;;;;9.10;1.17;;;4.80;99.90;;;;;;5015798;28;20109;-65
2023/01/15 07:57:33;;;;;;;9.15;1.23;;;4.90;99.90;;;;;;5025480;28;20052;-66
2023/01/15 07:59:58;;;;;;;8.75;1.60;;;4.90;99.90;;;;;;5020849;28;20038;-66
2023/01/15 08:02:24;;;;;;;6.63;1.15;;;4.80;99.90;;;;;;5016758;28;20412;-65
2023/01/15 08:04:50;;;;;;;11.05;1.70;;;4.80;99.90;;;;;;5003523;28;20042;-65
2023/01/15 08:07:15;;;;;;;6.55;1.88;;;4.90;99.90;;;;;;5024461;28;20040;-66
2023/01/15 08:09:41;;;;;;;8.60;1.60;;;4.90;99.90;;;;;;5018528;28;20040;-65
2023/01/15 08:17:38;;;;;;;10.27;1.75;;;5.00;99.90;;;;;;5022993;28;20148;-66
2023/01/15 08:20:06;;;;;;;8.40;1.45;;;5.00;99.90;;;;;;5020978;28;20038;-66
2023/01/15 08:22:32;;;;;;;8.48;1.63;;;5.00;99.90;;;;;;5018879;28;20393;-66
2023/01/15 08:24:58;;;;;;;10.50;1.92;;;5.00;99.90;;;;;;5029228;28;20049;-66
2023/01/15 08:27:24;;;;;;;10.00;1.75;;;5.00;99.90;;;;;;5025962;28;20037;-66
2023/01/15 08:29:49;;;;;;;7.30;1.25;;;5.00;99.90;;;;;;5039307;28;20066;-65
2023/01/15 08:32:15;;;;;;;7.60;1.30;;;5.00;99.90;;;;;;5012509;28;20080;-64
2023/01/15 08:34:41;;;;;;;9.65;1.75;;;5.00;99.90;;;;;;5014651;28;20030;-65
2023/01/15 08:37:06;;;;;;;6.03;1.38;;;5.00;99.90;;;;;;5024922;28;20090;-65
2023/01/15 08:39:32;;;;;;;7.55;1.33;;;5.10;99.90;;;;;;5030709;28;20061;-63
2023/01/15 08:41:58;;;;;;;9.32;1.50;;;5.10;99.90;;;;;;5027587;28;20564;-66
2023/01/15 08:44:23;;;;;;;6.88;1.65;;;5.20;99.90;;;;;;5017396;28;20041;-66
2023/01/15 08:46:51;;;;;;;7.13;1.30;;;5.20;99.90;;;;;;5017712;28;20054;-64
2023/01/15 08:49:18;;;;;;;11.15;1.75;;;5.30;99.90;;;;;;5017174;28;20486;-66
2023/01/15 08:51:46;;;;;;;6.05;1.23;;;5.40;99.90;;;;;;5021915;28;20050;-66
2023/01/15 08:54:11;;;;;;;5.28;1.27;;;5.50;99.90;;;;;;5012575;28;20371;-66
2023/01/15 08:56:37;;;;;;;6.68;1.30;;;5.50;99.90;;;;;;5022474;28;20037;-66
2023/01/15 08:59:05;;;;;;;5.85;1.30;;;5.70;99.90;;;;;;5022502;28;20029;-65
2023/01/15 09:01:30;;;;;;;8.38;1.50;;;5.70;99.90;;;;;;5016665;28;20041;-65
2023/01/15 09:03:57;;;;;;;5.22;1.33;;;5.90;99.90;;;;;;5022133;28;20046;-66
2023/01/15 09:06:22;;;;;;;9.10;1.75;;;5.80;99.90;;;;;;5027541;28;20137;-65
2023/01/15 09:08:48;;;;;;;9.68;1.75;;;5.80;99.90;;;;;;5018410;28;20485;-65
2023/01/15 09:11:13;;;;;;;9.55;1.40;;;5.70;99.90;;;;;;5031661;28;20045;-63
2023/01/15 09:13:39;;;;;;;9.02;1.50;;;5.40;99.90;;;;;;5023317;28;20052;-64
2023/01/15 09:16:06;;;;;;;6.43;1.20;;;5.20;99.90;;;;;;5030051;28;20045;-64
2023/01/15 09:18:32;;;;;;;5.63;1.35;;;5.20;99.90;;;;;;5030627;28;20030;-64
2023/01/15 09:20:58;;;;;;;6.38;1.35;;;5.10;99.90;;;;;;5029708;28;20041;-64
2023/01/15 09:23:24;;;;;;;10.20;1.40;;;5.00;99.90;;;;;;5024116;28;20044;-64
2023/01/15 09:26:32;;;;;;;4.75;1.13;;;4.90;99.90;;;;;;5018041;28;20045;-64
2023/01/15 09:28:59;;;;;;;3.30;1.00;;;4.90;99.90;;;;;;5024447;28;20056;-64
2023/01/15 09:31:25;;;;;;;17.85;3.42;;;4.60;99.90;;;;;;5030837;28;20439;-64
2023/01/15 09:33:50;;;;;;;7.35;1.60;;;4.40;99.90;;;;;;5030673;28;20192;-64
2023/01/15 09:36:27;;;;;;;7.40;1.17;;;4.20;99.90;;;;;;5029405;28;20069;-63
2023/01/15 09:38:53;;;;;;;2.58;0.73;;;4.20;99.90;;;;;;5011372;28;20049;-65
2023/01/15 09:44:25;;;;;;;3.75;0.82;;;4.20;99.90;;;;;;5011100;28;20450;-62
2023/01/15 09:47:19;;;;;;;4.45;0.65;;;4.30;99.90;;;;;;5017186;28;20064;-64
2023/01/15 09:50:17;;;;;;;9.13;1.10;;;4.40;99.90;;;;;;5016920;28;20061;-64
2023/01/15 09:53:01;;;;;;;7.78;1.00;;;4.50;99.90;;;;;;5019061;28;20049;-64
2023/01/15 09:55:33;;;;;;;5.53;0.93;;;4.50;99.90;;;;;;5031310;28;20037;-64
2023/01/15 09:58:02;;;;;;;5.03;0.98;;;4.60;99.90;;;;;;5025968;28;20048;-64
2023/01/15 10:00:34;;;;;;;6.47;1.35;;;4.70;99.90;;;;;;4990026;28;20481;-64
2023/01/15 10:03:09;;;;;;;2.75;1.10;;;4.80;99.90;;;;;;5025221;28;20489;-64
2023/01/15 10:05:48;;;;;;;7.63;1.38;;;4.80;99.90;;;;;;5016385;28;20470;-64
2023/01/15 10:08:18;;;;;;;7.47;1.38;;;4.90;99.90;;;;;;5025522;28;20025;-64
2023/01/15 10:11:22;;;;;;;11.05;1.25;;;5.00;99.90;;;;;;5032479;28;20076;-63
2023/01/15 10:13:55;;;;;;;4.10;0.80;;;5.10;99.90;;;;;;4985471;28;20049;-63
2023/01/15 10:16:26;;;;;;;3.83;0.88;;;5.10;99.90;;;;;;5018627;28;20042;-64
2023/01/15 10:18:52;;;;;;;7.63;1.90;;;5.10;99.90;;;;;;5027253;28;20056;-64
2023/01/15 10:21:31;;;;;;;5.35;1.20;;;5.10;99.90;;;;;;5029239;28;20107;-66
2023/01/15 10:24:17;;;;;;;10.33;1.50;;;4.50;99.90;;;;;;5020923;28;20041;-63
2023/01/15 10:26:53;;;;;;;7.25;1.27;;;4.30;99.90;;;;;;5018789;28;20045;-64
2023/01/15 10:29:38;;;;;;;8.18;1.25;;;4.20;99.90;;;;;;5023738;28;20100;-63
2023/01/15 10:32:12;;;;;;;7.32;1.13;;;4.20;99.90;;;;;;5028838;28;20045;-66
2023/01/15 10:34:53;;;;;;;8.48;1.30;;;4.20;99.90;;;;;;5024289;28;20057;-63
2023/01/15 10:37:31;;;;;;;6.80;1.35;;;4.20;99.90;;;;;;5017413;28;20117;-64
2023/01/15 10:40:17;;;;;;;21.88;4.65;;;4.30;99.90;;;;;;5020426;28;20042;-65
2023/01/15 10:42:49;;;;;;;11.65;1.88;;;4.20;99.90;;;;;;5019927;28;20153;-65
2023/01/15 10:45:23;;;;;;;5.53;1.10;;;4.20;99.90;;;;;;5025203;28;20045;-67
2023/01/15 10:48:01;;;;;;;10.40;1.65;;;4.20;99.90;;;;;;5020951;28;20065;-67
2023/01/15 10:50:26;;;;;;;7.68;1.20;;;4.10;99.90;;;;;;5004933;28;20052;-64
2023/01/15 10:52:58;;;;;;;11.23;1.27;;;4.10;99.90;;;;;;4998377;28;20124;-64
2023/01/15 10:55:24;;;;;;;9.00;1.48;;;4.20;99.90;;;;;;4999241;28;20546;-66
2023/01/15 10:58:22;;;;;;;10.48;1.83;;;4.20;99.90;;;;;;4997815;28;20120;-63
2023/01/15 11:01:02;;;;;;;9.05;1.73;;;4.30;99.90;;;;;;4966699;28;20049;-66
2023/01/15 11:03:46;;;;;;;8.60;1.77;;;4.20;99.90;;;;;;5027713;28;20152;-66
2023/01/15 11:06:20;;;;;;;6.97;1.77;;;4.30;99.90;;;;;;5015263;28;20100;-64
2023/01/15 11:08:54;;;;;;;11.00;1.65;;;4.30;99.90;;;;;;5020548;28;20181;-65
2023/01/15 11:19:36;;;;;;;10.70;1.63;;;5.00;99.90;;;;;;5019145;28;20037;-65
2023/01/15 11:22:08;;;;;;;10.63;1.90;;;4.70;99.90;;;;;;5014731;28;20473;-68
2023/01/15 11:24:48;;;;;;;11.38;2.60;;;5.10;99.90;;;;;;5030799;28;20037;-66
2023/01/15 11:27:17;;;;;;;9.43;1.70;;;4.70;99.90;;;;;;5029409;28;20061;-67
2023/01/15 11:29:44;;;;;;;12.95;2.10;;;4.70;99.90;;;;;;5016778;28;20041;-65
2023/01/15 11:32:21;;;;;;;7.05;1.70;;;4.90;99.90;;;;;;5021533;28;22011;-64
2023/01/15 11:34:59;;;;;;;18.25;2.58;;;5.00;99.90;;;;;;5022393;28;20089;-64
2023/01/15 11:37:26;;;;;;;14.68;1.85;;;5.20;99.90;;;;;;5014120;28;20041;-64
2023/01/15 11:39:59;;;;;;;11.82;1.92;;;5.20;99.90;;;;;;5021163;28;20482;-66
2023/01/15 11:50:55;;;;;;;11.15;1.80;;;5.60;99.90;;;;;;5024784;28;20049;-66
2023/01/15 11:53:28;;;;;;;13.57;1.95;;;5.70;99.90;;;;;;5018903;28;20049;-66
2023/01/15 11:56:01;;;;;;;8.48;1.40;;;5.70;99.90;;;;;;5016482;28;20400;-64
2023/01/15 11:58:48;;;;;;;6.00;1.42;;;5.60;99.90;;;;;;5015565;28;20068;-64
2023/01/15 12:01:25;;;;;;;12.15;1.75;;;5.50;99.90;;;;;;5020151;28;20512;-64
2023/01/15 12:03:51;;;;;;;12.00;2.13;;;5.50;99.90;;;;;;5012583;28;20092;-63
2023/01/15 12:06:20;;;;;;;9.00;1.77;;;5.60;99.90;;;;;;5023507;28;20053;-64
2023/01/15 12:09:27;;;;;;;8.38;2.03;;;5.60;99.90;;;;;;5013940;28;20393;-65
2023/01/15 12:12:06;;;;;;;10.65;2.13;;;5.70;99.90;;;;;;4999122;28;20111;-65
2023/01/15 12:14:51;;;;;;;7.10;1.70;;;5.70;99.90;;;;;;5006699;28;20362;-65
2023/01/15 12:17:23;;;;;;;11.48;1.67;;;5.80;99.90;;;;;;5020210;28;20080;-64
2023/01/15 12:20:10;;;;;;;11.52;2.65;;;5.80;99.90;;;;;;5032619;28;20123;-65
2023/01/15 12:23:01;;;;;;;10.10;1.40;;;5.90;99.90;;;;;;5014320;28;20596;-64
2023/01/15 12:26:02;;;;;;;11.45;2.88;;;5.90;99.90;;;;;;5006507;28;20136;-64
2023/01/15 12:28:36;;;;;;;6.53;1.77;;;5.90;99.90;;;;;;5018928;28;20037;-64
2023/01/15 12:31:10;;;;;;;3.85;1.40;;;5.90;99.90;;;;;;5027190;28;20536;-66
2023/01/15 12:33:52;;;;;;;11.95;1.85;;;5.90;99.90;;;;;;5023435;28;20033;-64
2023/01/15 12:36:24;;;;;;;7.28;1.60;;;5.90;99.90;;;;;;5020195;28;20125;-63
2023/01/15 12:39:13;;;;;;;8.40;1.77;;;6.00;99.90;;;;;;5031361;28;20124;-63
2023/01/15 12:47:31;;;;;;;7.03;1.80;;;6.10;99.90;;;;;;5013395;28;20058;-66
2023/01/15 12:50:23;;;;;;;10.55;1.98;;;6.10;99.90;;;;;;5013237;28;20049;-65
2023/01/15 12:52:55;;;;;;;9.15;1.83;;;6.20;99.90;;;;;;5028886;28;20037;-65
2023/01/15 12:55:27;;;;;;;6.72;1.55;;;6.30;99.90;;;;;;5014450;28;20044;-66
2023/01/15 12:58:03;;;;;;;6.70;1.65;;;6.30;99.90;;;;;;5011332;28;20063;-65
2023/01/15 13:00:32;;;;;;;11.85;1.80;;;6.30;99.90;;;;;;4997798;28;20038;-66
2023/01/15 13:03:18;;;;;;;8.45;1.75;;;6.30;99.90;;;;;;4997062;28;20061;-64
2023/01/15 13:05:59;;;;;;;11.32;1.45;;;6.40;99.90;;;;;;5018187;28;20496;-64
2023/01/15 13:08:43;;;;;;;6.30;1.52;;;6.40;99.90;;;;;;5015334;28;20049;-64
2023/01/15 13:11:11;;;;;;;8.35;1.50;;;6.30;99.90;;;;;;5020926;28;20115;-63
2023/01/15 13:13:40;;;;;;;8.73;1.45;;;6.30;99.90;;;;;;5026289;28;20033;-63
2023/01/15 13:16:11;;;;;;;8.30;1.60;;;6.30;99.90;;;;;;5022951;28;20034;-65
2023/01/15 13:19:07;;;;;;;7.50;1.40;;;6.30;99.90;;;;;;5004434;28;20120;-65
2023/01/15 13:21:35;;;;;;;6.38;1.27;;;6.30;99.90;;;;;;5013131;28;20136;-64
2023/01/15 13:24:21;;;;;;;10.13;1.63;;;6.30;99.90;;;;;;5013380;28;20084;-63
2023/01/15 13:27:04;;;;;;;6.22;1.25;;;6.40;99.90;;;;;;5028801;28;20052;-63
2023/01/15 13:29:51;;;;;;;5.82;1.58;;;6.50;99.90;;;;;;5024212;28;20037;-64
2023/01/15 13:32:23;;;;;;;14.05;2.45;;;6.50;99.90;;;;;;5018340;28;20084;-65
2023/01/15 13:34:56;;;;;;;10.60;1.80;;;6.50;99.90;;;;;;5019056;28;20129;-64
2023/01/15 13:37:27;;;;;;;9.57;1.27;;;6.50;99.90;;;;;;5014939;28;20040;-63
2023/01/15 13:40:02;;;;;;;10.85;1.42;;;6.50;99.90;;;;;;5019623;28;20072;-62
2023/01/15 13:42:32;;;;;;;11.80;1.92;;;6.60;99.90;;;;;;5014962;28;20048;-64
2023/01/15 13:45:31;;;;;;;13.18;1.55;;;6.60;99.90;;;;;;5014377;28;20428;-67
2023/01/15 13:48:22;;;;;;;11.60;2.00;;;6.50;99.90;;;;;;5024640;28;20068;-64
2023/01/15 13:50:58;;;;;;;11.82;1.88;;;6.30;99.90;;;;;;5020247;28;20085;-64
2023/01/15 13:53:27;;;;;;;8.63;1.92;;;5.90;99.90;;;;;;5028227;28;20136;-65
2023/01/15 13:56:13;;;;;;;10.55;2.20;;;5.80;99.90;;;;;;5029562;28;20045;-66
2023/01/15 13:58:52;;;;;;;8.95;1.52;;;5.70;99.90;;;;;;5024346;28;20041;-64
2023/01/15 14:01:19;;;;;;;8.15;1.35;;;5.40;99.90;;;;;;5011704;28;20065;-65
2023/01/15 14:04:03;;;;;;;8.30;1.60;;;5.20;99.90;;;;;;5014307;28;20045;-64
2023/01/15 14:06:45;;;;;;;5.38;1.35;;;5.10;99.90;;;;;;5021774;28;20072;-66
2023/01/15 14:09:24;;;;;;;14.35;2.40;;;5.10;99.90;;;;;;5027283;28;20047;-66